Time;durP1;ratioP1;P1;durP2;ratioP2;P2;SDS_P1;SDS_P2;PMS_P1;PMS_P2;Temp;Humidity;BMP_temperature;BMP_pressure;BME280_temperature;BME280_humidity;BME280_pressure;Samples;Min_cycle;Max_cycle;Signal;HPM_P1;HPM_P2
2023/01/14 00:02:22;;;;;;;20.43;3.43;;;8.20;99.90;;;;;;4973975;28;20204;-67
2023/01/14 00:04:48;;;;;;;4.73;2.73;;;8.20;99.90;;;;;;4992158;28;20195;-67
2023/01/14 00:07:15;;;;;;;14.80;3.20;;;8.10;99.90;;;;;;4981109;28;20224;-67
2023/01/14 00:09:41;;;;;;;9.70;3.97;;;8.00;99.90;;;;;;4982682;28;20655;-67
2023/01/14 00:12:07;;;;;;;9.77;2.67;;;8.00;99.90;;;;;;4987961;28;20226;-67
2023/01/14 00:14:32;;;;;;;24.73;3.87;;;7.90;99.90;;;;;;4982395;28;20193;-67
2023/01/14 00:17:00;;;;;;;23.50;4.97;;;7.80;99.90;;;;;;4976566;28;20216;-67
2023/01/14 00:19:26;;;;;;;9.97;3.10;;;7.70;99.90;;;;;;4977666;28;20199;-67
2023/01/14 00:21:54;;;;;;;5.73;2.23;;;7.80;99.90;;;;;;4976400;28;20550;-67
2023/01/14 00:24:21;;;;;;;11.47;3.70;;;7.80;99.90;;;;;;4975845;28;20189;-67
2023/01/14 00:26:52;;;;;;;16.57;3.23;;;7.70;99.90;;;;;;4978818;28;20207;-67
2023/01/14 00:29:22;;;;;;;9.87;3.20;;;7.60;99.90;;;;;;4976056;28;20243;-67
2023/01/14 00:31:48;;;;;;;14.97;3.20;;;7.60;99.90;;;;;;4980331;28;20568;-67
2023/01/14 00:34:15;;;;;;;16.60;3.40;;;7.60;99.90;;;;;;4976536;28;20185;-67
2023/01/14 00:36:43;;;;;;;7.63;2.47;;;7.50;99.90;;;;;;4976151;28;20184;-67
2023/01/14 00:39:08;;;;;;;10.77;3.30;;;7.50;99.90;;;;;;4979381;28;20634;-67
2023/01/14 00:41:34;;;;;;;4.97;2.73;;;7.40;99.90;;;;;;4975998;28;20196;-67
2023/01/14 00:44:00;;;;;;;7.83;2.33;;;7.40;99.90;;;;;;4979576;28;20196;-67
2023/01/14 00:46:32;;;;;;;15.03;2.47;;;7.60;99.90;;;;;;4987839;28;20199;-67
2023/01/14 00:49:03;;;;;;;4.97;2.80;;;7.60;99.90;;;;;;4988093;28;20191;-66
2023/01/14 00:51:30;;;;;;;8.13;2.40;;;7.70;99.90;;;;;;4981750;28;20302;-67
2023/01/14 00:53:56;;;;;;;10.67;3.37;;;7.50;99.90;;;;;;4984180;28;20283;-67
2023/01/14 00:56:22;;;;;;;10.50;2.83;;;7.50;99.90;;;;;;4976092;28;20188;-67
2023/01/14 00:58:49;;;;;;;13.67;3.23;;;7.30;99.90;;;;;;4984942;28;20200;-67
2023/01/14 01:01:16;;;;;;;3.93;2.10;;;7.40;99.90;;;;;;4991194;28;20297;-68
2023/01/14 01:03:54;;;;;;;8.10;2.60;;;7.40;99.90;;;;;;4975619;28;20208;-67
2023/01/14 01:06:22;;;;;;;7.57;2.17;;;7.50;99.90;;;;;;4980326;28;20598;-67
2023/01/14 01:08:49;;;;;;;7.67;2.87;;;7.60;99.90;;;;;;4991627;28;20706;-67
2023/01/14 01:11:16;;;;;;;9.80;3.07;;;7.60;99.90;;;;;;4988762;28;20248;-66
2023/01/14 01:13:42;;;;;;;6.07;2.80;;;7.60;99.90;;;;;;4989504;28;20199;-67
2023/01/14 01:16:14;;;;;;;5.67;2.57;;;7.50;99.90;;;;;;4993441;28;20191;-67
2023/01/14 01:18:42;;;;;;;7.83;2.07;;;7.50;99.90;;;;;;4975685;28;20184;-67
2023/01/14 01:21:11;;;;;;;4.60;2.07;;;7.40;99.90;;;;;;4988152;28;20671;-67
2023/01/14 01:23:41;;;;;;;4.40;2.37;;;7.30;99.90;;;;;;4989779;28;20211;-67
2023/01/14 01:26:10;;;;;;;7.50;1.90;;;7.30;99.90;;;;;;4990962;28;20195;-67
2023/01/14 01:28:36;;;;;;;5.93;3.07;;;7.40;99.90;;;;;;4988140;28;20208;-67
2023/01/14 01:31:11;;;;;;;3.33;3.00;;;7.40;99.90;;;;;;4979596;28;20213;-67
2023/01/14 01:33:37;;;;;;;6.13;2.30;;;7.40;99.90;;;;;;4976780;28;20192;-67
2023/01/14 01:36:28;;;;;;;11.87;3.27;;;7.40;99.90;;;;;;4981012;28;20630;-67
2023/01/14 01:38:53;;;;;;;11.60;3.20;;;7.40;99.90;;;;;;4984879;28;20230;-67
2023/01/14 01:41:24;;;;;;;5.00;1.97;;;7.50;99.90;;;;;;4974635;28;20196;-67
2023/01/14 01:44:07;;;;;;;7.57;2.07;;;7.40;99.90;;;;;;4976771;28;20605;-66
2023/01/14 01:46:35;;;;;;;11.47;2.60;;;7.20;99.90;;;;;;4984252;28;20191;-67
2023/01/14 01:49:13;;;;;;;13.83;2.53;;;7.30;99.90;;;;;;4990432;28;20184;-67
2023/01/14 01:52:02;;;;;;;10.70;2.70;;;7.30;99.90;;;;;;4983915;28;20208;-67
2023/01/14 01:54:35;;;;;;;4.73;1.83;;;7.50;99.90;;;;;;4994023;28;20275;-67
2023/01/14 01:57:02;;;;;;;8.77;2.20;;;7.70;99.90;;;;;;4993838;28;20188;-67
2023/01/14 01:59:34;;;;;;;8.27;2.53;;;7.60;99.90;;;;;;4960854;28;20192;-67
2023/01/14 02:02:00;;;;;;;10.60;2.87;;;7.70;99.90;;;;;;4975879;28;20185;-67
2023/01/14 02:04:25;;;;;;;9.27;2.90;;;7.70;99.90;;;;;;4990310;28;20660;-67
2023/01/14 02:06:51;;;;;;;19.60;2.43;;;7.70;99.90;;;;;;4973244;28;20188;-67
2023/01/14 02:09:18;;;;;;;9.17;2.13;;;7.80;99.90;;;;;;4976512;28;20255;-68
2023/01/14 02:12:05;;;;;;;9.20;2.80;;;7.90;99.90;;;;;;4984389;28;20277;-67
2023/01/14 02:14:51;;;;;;;5.97;2.00;;;7.90;99.90;;;;;;4979244;28;20275;-67
2023/01/14 02:18:02;;;;;;;9.40;2.90;;;8.00;99.90;;;;;;4980296;28;20180;-69
2023/01/14 02:20:45;;;;;;;5.00;2.20;;;8.00;99.90;;;;;;4970257;28;20215;-67
2023/01/14 02:23:48;;;;;;;7.90;2.43;;;8.00;99.90;;;;;;4977873;28;20181;-67
2023/01/14 02:26:48;;;;;;;8.97;2.70;;;8.00;99.90;;;;;;4974621;28;20263;-67
2023/01/14 02:29:38;;;;;;;5.53;2.17;;;8.00;99.90;;;;;;4972885;28;20215;-67
2023/01/14 02:32:09;;;;;;;12.90;2.87;;;7.90;99.90;;;;;;4973605;28;20687;-67
2023/01/14 02:34:51;;;;;;;12.17;3.70;;;8.00;99.90;;;;;;4978965;28;20192;-67
2023/01/14 02:37:25;;;;;;;6.67;2.83;;;8.00;99.90;;;;;;4976312;28;20180;-67
2023/01/14 02:40:26;;;;;;;9.30;2.23;;;8.00;99.90;;;;;;4982062;28;20636;-67
2023/01/14 02:46:26;;;;;;;6.17;1.60;;;8.00;99.90;;;;;;4964139;28;20245;-67
2023/01/14 02:48:55;;;;;;;9.47;2.10;;;8.30;99.90;;;;;;4974162;28;20196;-67
2023/01/14 02:51:21;;;;;;;11.30;2.37;;;8.40;99.90;;;;;;4974090;28;20291;-67
2023/01/14 02:53:46;;;;;;;10.67;2.20;;;8.30;99.90;;;;;;4972795;28;20200;-67
2023/01/14 02:56:13;;;;;;;8.40;1.90;;;8.20;99.90;;;;;;4991390;28;20215;-67
2023/01/14 02:59:05;;;;;;;10.57;1.53;;;8.20;99.90;;;;;;4990430;28;20188;-67
2023/01/14 03:01:54;;;;;;;7.23;1.67;;;8.30;99.90;;;;;;4978792;28;20267;-67
2023/01/14 03:04:31;;;;;;;6.77;2.43;;;8.40;99.90;;;;;;4974639;28;20195;-67
2023/01/14 03:07:12;;;;;;;3.90;2.23;;;8.30;99.90;;;;;;4980702;28;20187;-67
2023/01/14 03:09:55;;;;;;;8.67;2.13;;;8.40;99.90;;;;;;4973817;28;20276;-67
2023/01/14 03:12:35;;;;;;;11.67;2.70;;;8.30;99.90;;;;;;4986604;28;20238;-67
2023/01/14 03:15:28;;;;;;;10.73;2.37;;;8.10;99.90;;;;;;4980382;28;20187;-67
2023/01/14 03:18:16;;;;;;;11.67;2.33;;;8.20;99.90;;;;;;4984938;28;20263;-67
2023/01/14 03:20:47;;;;;;;7.13;2.50;;;8.40;99.90;;;;;;4982340;28;20177;-67
2023/01/14 03:23:19;;;;;;;21.83;3.10;;;8.50;99.90;;;;;;4981782;28;20212;-67
2023/01/14 03:25:48;;;;;;;2.80;2.17;;;8.40;99.90;;;;;;4992440;28;20284;-67
2023/01/14 03:28:17;;;;;;;8.60;2.53;;;8.30;99.90;;;;;;4979399;28;20188;-67
2023/01/14 03:30:49;;;;;;;5.20;2.50;;;8.30;99.90;;;;;;4976875;28;20185;-67
2023/01/14 03:33:42;;;;;;;6.17;3.93;;;8.20;99.90;;;;;;4976946;28;20189;-67
2023/01/14 03:36:09;;;;;;;6.63;2.30;;;8.20;99.90;;;;;;4975176;28;20614;-67
2023/01/14 03:38:41;;;;;;;6.30;2.10;;;8.20;99.90;;;;;;4979179;28;20281;-67
2023/01/14 03:41:11;;;;;;;11.80;3.43;;;8.10;99.90;;;;;;4977117;28;20723;-66
2023/01/14 03:43:48;;;;;;;12.90;2.20;;;8.00;99.90;;;;;;4977123;28;20613;-67
2023/01/14 03:46:15;;;;;;;21.37;5.73;;;8.00;99.90;;;;;;4970695;28;20184;-67
2023/01/14 03:48:41;;;;;;;13.47;2.20;;;8.10;99.90;;;;;;4985359;28;20229;-67
2023/01/14 03:51:36;;;;;;;5.43;1.90;;;8.10;99.90;;;;;;4967320;28;20219;-66
2023/01/14 03:54:21;;;;;;;19.27;3.60;;;8.00;99.90;;;;;;4980624;28;20188;-67
2023/01/14 03:57:10;;;;;;;8.87;2.30;;;8.00;99.90;;;;;;4989664;28;20549;-67
2023/01/14 03:59:48;;;;;;;5.00;1.70;;;8.10;99.90;;;;;;4977355;28;20191;-67
2023/01/14 04:02:15;;;;;;;16.47;4.73;;;8.10;99.90;;;;;;4981884;28;20219;-67
2023/01/14 04:04:44;;;;;;;9.10;2.60;;;8.10;99.90;;;;;;4977543;28;20189;-67
2023/01/14 04:07:10;;;;;;;4.03;2.37;;;8.20;99.90;;;;;;4990578;28;20234;-67
2023/01/14 04:09:35;;;;;;;10.97;2.50;;;8.10;99.90;;;;;;4987592;28;20646;-67
2023/01/14 04:12:01;;;;;;;9.93;2.50;;;8.10;99.90;;;;;;4975155;28;20219;-67
2023/01/14 04:17:11;;;;;;;7.27;2.10;;;8.20;99.90;;;;;;4978315;28;20651;-67
2023/01/14 04:19:36;;;;;;;13.50;2.63;;;8.30;99.90;;;;;;4987988;28;20216;-67
2023/01/14 04:22:02;;;;;;;5.10;2.13;;;8.40;99.90;;;;;;4990468;28;20192;-67
2023/01/14 04:24:28;;;;;;;8.70;2.20;;;8.40;99.90;;;;;;4993652;28;20204;-67
2023/01/14 04:26:53;;;;;;;10.60;2.33;;;8.30;99.90;;;;;;4992939;28;20195;-67
2023/01/14 04:29:19;;;;;;;10.60;2.60;;;8.30;99.90;;;;;;4990343;28;20191;-67
2023/01/14 04:31:45;;;;;;;6.10;2.17;;;8.30;99.90;;;;;;4991622;28;20274;-67
2023/01/14 04:34:10;;;;;;;5.50;2.33;;;8.40;99.90;;;;;;4980380;28;20197;-67
2023/01/14 04:36:36;;;;;;;7.40;2.70;;;8.50;99.90;;;;;;4974173;28;20209;-66
2023/01/14 04:39:02;;;;;;;12.20;2.13;;;8.60;99.90;;;;;;4992794;28;20195;-67
2023/01/14 04:44:12;;;;;;;14.03;4.03;;;8.50;99.90;;;;;;4992901;28;20230;-67
2023/01/14 04:46:38;;;;;;;10.23;2.10;;;8.50;99.90;;;;;;4989631;28;20196;-67
2023/01/14 04:49:03;;;;;;;4.73;3.13;;;8.60;99.90;;;;;;4980067;28;20195;-69
2023/01/14 04:51:29;;;;;;;10.53;2.37;;;8.50;99.90;;;;;;4985238;28;20777;-68
2023/01/14 04:53:54;;;;;;;6.03;2.30;;;8.50;99.90;;;;;;4989772;28;20188;-67
2023/01/14 04:56:20;;;;;;;9.97;3.53;;;8.50;99.90;;;;;;4988662;28;20192;-67
2023/01/14 04:58:47;;;;;;;6.87;2.53;;;8.40;99.90;;;;;;4979582;28;20221;-66
2023/01/14 05:01:12;;;;;;;5.93;2.43;;;8.50;99.90;;;;;;4975895;28;20184;-66
2023/01/14 05:03:38;;;;;;;10.90;3.10;;;8.40;99.90;;;;;;4987405;28;20188;-67
2023/01/14 05:06:04;;;;;;;5.73;2.50;;;8.50;99.90;;;;;;4975333;28;20271;-67
2023/01/14 05:08:30;;;;;;;5.40;2.10;;;8.60;99.90;;;;;;4976523;28;20247;-67
2023/01/14 05:10:56;;;;;;;12.70;3.20;;;8.50;99.90;;;;;;4974919;28;20189;-66
2023/01/14 05:13:21;;;;;;;9.83;2.17;;;8.60;99.90;;;;;;4975248;28;20267;-67
2023/01/14 05:15:47;;;;;;;13.03;2.10;;;8.60;99.90;;;;;;4985298;28;20557;-67
2023/01/14 05:18:15;;;;;;;9.67;2.67;;;8.50;99.90;;;;;;4979003;28;20592;-67
2023/01/14 05:20:42;;;;;;;7.50;2.53;;;8.60;99.90;;;;;;4983859;28;20219;-67
2023/01/14 05:23:13;;;;;;;13.27;2.33;;;8.60;99.90;;;;;;4985024;28;20189;-67
2023/01/14 05:25:39;;;;;;;12.60;2.73;;;8.50;99.90;;;;;;4982247;28;20267;-66
2023/01/14 05:28:08;;;;;;;3.63;2.40;;;8.60;99.90;;;;;;4988007;28;20205;-66
2023/01/14 05:30:35;;;;;;;7.43;2.10;;;8.60;99.90;;;;;;4974972;28;20626;-67
2023/01/14 05:33:01;;;;;;;3.57;2.00;;;8.60;99.90;;;;;;4980076;28;20225;-67
2023/01/14 05:35:27;;;;;;;4.50;2.17;;;8.60;99.90;;;;;;4988788;28;20609;-67
2023/01/14 05:37:52;;;;;;;7.60;2.37;;;8.60;99.90;;;;;;4970878;28;20192;-67
2023/01/14 05:40:19;;;;;;;6.23;2.23;;;8.60;99.90;;;;;;4978400;28;20704;-66
2023/01/14 05:48:13;;;;;;;20.33;3.03;;;8.50;99.90;;;;;;4979982;28;20255;-66
2023/01/14 05:50:39;;;;;;;7.07;2.17;;;8.50;99.90;;;;;;4978399;28;20583;-67
2023/01/14 05:53:06;;;;;;;7.23;2.03;;;8.40;99.90;;;;;;4974641;28;20240;-67
2023/01/14 05:55:32;;;;;;;5.47;2.53;;;8.40;99.90;;;;;;4986845;28;20211;-67
2023/01/14 05:57:58;;;;;;;10.40;3.40;;;8.40;99.90;;;;;;4986326;28;20635;-67
2023/01/14 06:08:45;;;;;;;5.00;1.93;;;8.30;99.90;;;;;;4974919;28;20259;-67
2023/01/14 06:11:11;;;;;;;2.87;2.57;;;8.30;99.90;;;;;;4992425;28;20620;-67
2023/01/14 06:13:36;;;;;;;4.23;2.60;;;8.30;99.90;;;;;;4975985;28;20220;-67
2023/01/14 06:16:06;;;;;;;2.30;1.97;;;8.40;99.90;;;;;;4980802;28;20192;-67
2023/01/14 06:18:38;;;;;;;5.07;2.17;;;8.30;99.90;;;;;;4982057;28;20183;-67
2023/01/14 06:21:07;;;;;;;11.97;2.47;;;8.30;99.90;;;;;;4960686;28;20283;-67
2023/01/14 06:23:33;;;;;;;7.33;2.47;;;8.30;99.90;;;;;;4975360;28;20263;-67
2023/01/14 06:25:59;;;;;;;9.47;1.93;;;8.40;99.90;;;;;;4983137;28;20275;-67
2023/01/14 06:28:28;;;;;;;2.50;2.30;;;8.40;99.90;;;;;;4988585;28;20193;-66
2023/01/14 06:30:54;;;;;;;4.10;2.33;;;8.30;99.90;;;;;;4995269;28;20187;-66
2023/01/14 06:33:20;;;;;;;5.63;3.47;;;8.40;99.90;;;;;;4991727;28;20659;-67
2023/01/14 06:35:46;;;;;;;3.80;2.60;;;8.50;99.90;;;;;;4975620;28;20751;-66
2023/01/14 06:38:12;;;;;;;8.47;3.00;;;8.50;99.90;;;;;;4981688;28;20565;-67
2023/01/14 06:40:39;;;;;;;4.83;2.80;;;8.50;99.90;;;;;;4971641;28;20635;-66
2023/01/14 06:43:06;;;;;;;6.67;3.37;;;8.50;99.90;;;;;;4975804;28;20219;-67
2023/01/14 06:45:32;;;;;;;2.53;2.33;;;8.60;99.90;;;;;;4973287;28;20181;-66
2023/01/14 06:47:58;;;;;;;8.43;2.87;;;8.60;99.90;;;;;;4973580;28;20246;-67
2023/01/14 06:50:24;;;;;;;8.00;2.70;;;8.60;99.90;;;;;;4975437;28;20216;-68
2023/01/14 06:52:52;;;;;;;4.00;2.80;;;8.70;99.90;;;;;;4980788;28;20610;-67
2023/01/14 06:55:18;;;;;;;9.77;3.37;;;8.80;99.90;;;;;;4972376;28;20193;-67
2023/01/14 06:57:45;;;;;;;3.10;2.50;;;8.80;99.90;;;;;;4982724;28;20192;-67
2023/01/14 07:00:12;;;;;;;7.57;2.57;;;8.80;99.90;;;;;;4975371;28;20268;-68
2023/01/14 07:02:38;;;;;;;3.90;2.50;;;8.80;99.90;;;;;;4978896;28;20267;-67
2023/01/14 07:05:04;;;;;;;3.67;2.60;;;8.80;99.90;;;;;;4976178;28;20193;-66
2023/01/14 07:07:29;;;;;;;5.50;2.50;;;8.80;99.90;;;;;;4984116;28;20192;-67
2023/01/14 07:09:55;;;;;;;4.67;2.10;;;8.90;99.90;;;;;;4972422;28;20279;-67
2023/01/14 07:12:21;;;;;;;3.07;2.27;;;8.90;99.90;;;;;;4987389;28;20222;-67
2023/01/14 07:14:47;;;;;;;1.90;1.73;;;8.90;99.90;;;;;;4988223;28;20200;-67
2023/01/14 07:17:13;;;;;;;6.43;2.67;;;9.00;99.90;;;;;;4971718;28;20258;-66
2023/01/14 07:19:38;;;;;;;5.50;2.67;;;9.00;99.90;;;;;;4985057;28;20180;-67
2023/01/14 07:22:05;;;;;;;4.30;3.50;;;9.00;99.90;;;;;;4989245;28;20235;-67
2023/01/14 07:24:30;;;;;;;4.10;2.50;;;8.90;99.90;;;;;;4988301;28;20643;-66
2023/01/14 07:26:56;;;;;;;1.63;1.50;;;9.10;99.90;;;;;;4988767;28;20199;-67
2023/01/14 07:29:22;;;;;;;5.30;2.57;;;9.00;99.90;;;;;;4986966;28;20634;-66
2023/01/14 07:31:47;;;;;;;2.57;1.43;;;9.10;99.90;;;;;;4988002;28;20216;-66
2023/01/14 07:34:13;;;;;;;3.27;2.07;;;9.20;99.90;;;;;;4987388;28;20215;-66
2023/01/14 07:36:39;;;;;;;3.17;2.87;;;9.20;99.90;;;;;;4989346;28;20228;-67
2023/01/14 07:39:05;;;;;;;2.17;1.80;;;9.20;99.90;;;;;;4987323;28;20188;-67
2023/01/14 07:41:30;;;;;;;3.87;1.83;;;9.30;99.90;;;;;;4987311;28;20184;-67
2023/01/14 07:43:56;;;;;;;5.80;2.70;;;9.30;99.90;;;;;;4986979;28;20216;-66
2023/01/14 07:46:22;;;;;;;6.07;2.27;;;9.30;99.90;;;;;;4983908;28;20184;-67
2023/01/14 07:48:47;;;;;;;5.13;2.10;;;9.30;99.90;;;;;;4973770;28;20189;-71
2023/01/14 07:51:20;;;;;;;3.93;2.67;;;9.40;99.90;;;;;;4979355;28;20208;-67
2023/01/14 07:53:49;;;;;;;3.70;2.57;;;9.50;99.90;;;;;;4973936;28;20569;-67
2023/01/14 07:56:15;;;;;;;6.67;2.63;;;9.50;99.90;;;;;;4974894;28;20272;-66
2023/01/14 07:58:41;;;;;;;2.13;1.87;;;9.50;99.90;;;;;;4977647;28;20626;-66
2023/01/14 08:01:08;;;;;;;8.20;2.97;;;9.50;99.90;;;;;;4992889;28;20266;-68
2023/01/14 08:03:35;;;;;;;4.20;2.10;;;9.50;99.90;;;;;;4982409;28;20560;-67
2023/01/14 08:06:05;;;;;;;6.27;1.80;;;9.50;99.90;;;;;;4978302;28;20284;-67
2023/01/14 08:08:31;;;;;;;2.27;1.63;;;9.50;99.90;;;;;;4974127;28;20203;-67
2023/01/14 08:11:01;;;;;;;9.87;2.40;;;9.50;99.90;;;;;;4981202;28;20200;-66
2023/01/14 08:13:27;;;;;;;2.93;1.97;;;9.50;99.90;;;;;;4973841;28;20189;-67
2023/01/14 08:16:03;;;;;;;3.43;1.40;;;9.60;99.90;;;;;;4986698;28;20556;-69
2023/01/14 08:18:30;;;;;;;5.63;2.27;;;9.50;99.90;;;;;;4984549;28;20187;-66
2023/01/14 08:21:00;;;;;;;5.90;1.83;;;9.50;99.90;;;;;;4981304;28;20244;-67
2023/01/14 08:23:26;;;;;;;2.43;1.70;;;9.50;99.90;;;;;;4982425;28;20192;-69
2023/01/14 08:25:52;;;;;;;1.83;1.73;;;9.50;99.90;;;;;;4981657;28;20196;-70
2023/01/14 08:28:19;;;;;;;1.93;1.83;;;9.50;99.90;;;;;;4986736;28;21126;-68
2023/01/14 08:30:44;;;;;;;3.43;2.10;;;9.50;99.90;;;;;;4984311;28;20270;-67
2023/01/14 08:33:10;;;;;;;3.17;2.00;;;9.50;99.90;;;;;;4978112;28;20275;-67
2023/01/14 08:35:39;;;;;;;5.33;2.40;;;9.60;99.90;;;;;;4978075;28;20604;-70
2023/01/14 08:38:06;;;;;;;4.83;1.90;;;9.50;99.90;;;;;;4984827;28;20196;-66
2023/01/14 08:40:32;;;;;;;3.87;1.70;;;9.60;99.90;;;;;;4975571;28;20188;-67
2023/01/14 08:42:58;;;;;;;6.33;2.50;;;9.50;99.90;;;;;;4976612;28;20205;-67
2023/01/14 08:45:24;;;;;;;3.43;2.00;;;9.60;99.90;;;;;;4973952;28;20200;-68
2023/01/14 08:47:49;;;;;;;4.43;2.27;;;9.60;99.90;;;;;;4979568;28;20180;-68
2023/01/14 08:50:15;;;;;;;1.93;1.53;;;9.50;99.90;;;;;;4983659;28;20660;-70
2023/01/14 08:52:41;;;;;;;6.60;1.90;;;9.40;99.90;;;;;;4977724;28;20248;-68
2023/01/14 08:55:07;;;;;;;4.60;1.90;;;9.40;99.90;;;;;;4978116;28;20231;-68
2023/01/14 08:57:33;;;;;;;13.03;2.50;;;9.40;99.90;;;;;;4973684;28;20193;-68
2023/01/14 08:59:59;;;;;;;4.40;2.17;;;9.50;99.90;;;;;;4983541;28;20600;-67
2023/01/14 09:02:24;;;;;;;12.43;4.63;;;9.50;99.90;;;;;;4991689;28;20238;-67
2023/01/14 09:04:50;;;;;;;5.00;2.83;;;9.40;99.90;;;;;;4976569;28;20180;-69
2023/01/14 09:18:12;;;;;;;2.83;1.60;;;9.60;99.90;;;;;;4987878;28;20259;-68
2023/01/14 09:20:40;;;;;;;7.97;1.97;;;9.70;99.90;;;;;;4992278;28;20211;-68
2023/01/14 09:23:08;;;;;;;7.23;2.63;;;9.60;99.90;;;;;;4982432;28;20618;-68
2023/01/14 09:25:34;;;;;;;1.73;1.63;;;9.60;99.90;;;;;;4976590;28;20264;-68
2023/01/14 09:27:59;;;;;;;2.97;1.83;;;9.60;99.90;;;;;;4974184;28;20280;-68
2023/01/14 09:30:26;;;;;;;2.07;1.30;;;9.70;99.90;;;;;;4980650;28;20188;-69
2023/01/14 09:32:52;;;;;;;1.50;1.40;;;9.70;99.90;;;;;;4974455;28;20224;-68
2023/01/14 09:35:18;;;;;;;1.07;1.07;;;9.70;99.90;;;;;;4988753;28;20287;-68
2023/01/14 09:37:44;;;;;;;4.07;1.10;;;9.70;99.90;;;;;;4975083;28;20195;-68
2023/01/14 09:40:10;;;;;;;1.10;0.97;;;9.80;99.90;;;;;;4988082;28;20191;-68
2023/01/14 09:42:48;;;;;;;1.57;1.47;;;9.80;99.90;;;;;;4980428;28;20196;-67
2023/01/14 09:45:33;;;;;;;2.43;1.53;;;9.90;99.90;;;;;;4975731;28;20238;-68
2023/01/14 09:48:14;;;;;;;1.73;1.40;;;9.90;99.90;;;;;;4980657;28;20239;-67
2023/01/14 09:51:13;;;;;;;1.63;1.53;;;9.90;99.90;;;;;;4989734;28;20603;-68
2023/01/14 09:54:10;;;;;;;3.50;1.50;;;9.90;99.90;;;;;;4986244;28;20283;-68
2023/01/14 09:56:47;;;;;;;1.10;1.10;;;9.90;99.90;;;;;;4988626;28;20187;-68
2023/01/14 09:59:42;;;;;;;1.23;1.13;;;9.90;99.90;;;;;;4974271;28;20200;-67
2023/01/14 10:02:17;;;;;;;3.37;1.53;;;9.90;99.90;;;;;;4961761;28;20608;-67
2023/01/14 10:04:46;;;;;;;5.40;1.17;;;10.00;99.90;;;;;;4974405;28;20180;-67
2023/01/14 10:07:13;;;;;;;3.57;1.50;;;9.90;99.90;;;;;;4977866;28;20184;-68
2023/01/14 10:09:47;;;;;;;4.73;1.73;;;9.90;99.90;;;;;;4979898;28;20195;-67
2023/01/14 10:12:29;;;;;;;4.57;1.97;;;9.90;99.90;;;;;;4982996;28;20227;-67
2023/01/14 10:15:07;;;;;;;3.07;2.00;;;10.00;99.90;;;;;;4977159;28;20184;-67
2023/01/14 10:17:40;;;;;;;4.23;2.20;;;10.00;99.90;;;;;;4981897;28;20188;-68
2023/01/14 10:20:20;;;;;;;6.23;2.83;;;10.00;99.90;;;;;;4977406;28;20207;-69
2023/01/14 10:23:11;;;;;;;10.57;3.27;;;10.10;99.90;;;;;;4981584;28;20652;-67
2023/01/14 10:25:38;;;;;;;3.13;2.47;;;10.00;99.90;;;;;;4985737;28;20230;-67
2023/01/14 10:28:12;;;;;;;6.00;3.13;;;10.00;99.90;;;;;;4982404;28;20308;-67
2023/01/14 10:30:39;;;;;;;9.70;3.40;;;10.10;99.90;;;;;;4978745;28;20176;-68
2023/01/14 10:33:06;;;;;;;1.60;1.50;;;10.10;99.90;;;;;;4980808;28;20244;-67
2023/01/14 10:35:37;;;;;;;3.13;2.30;;;10.10;99.90;;;;;;4973774;28;20271;-68
2023/01/14 10:38:04;;;;;;;2.87;2.20;;;10.10;99.90;;;;;;4978972;28;20214;-67
2023/01/14 10:40:31;;;;;;;1.60;1.50;;;10.10;99.90;;;;;;4981004;28;20192;-68
2023/01/14 10:42:59;;;;;;;2.20;1.60;;;10.10;99.90;;;;;;4978030;28;20192;-68
2023/01/14 10:45:25;;;;;;;1.47;1.33;;;10.10;99.90;;;;;;4982267;28;20597;-65
2023/01/14 10:47:56;;;;;;;1.10;1.10;;;10.20;99.90;;;;;;4974578;28;20576;-67
2023/01/14 10:50:27;;;;;;;2.83;0.90;;;10.10;99.90;;;;;;4973111;28;20189;-67
2023/01/14 10:52:53;;;;;;;0.93;0.93;;;10.10;99.90;;;;;;4989763;28;20806;-68
2023/01/14 10:55:30;;;;;;;0.70;0.70;;;10.20;99.90;;;;;;4974042;28;20200;-67
2023/01/14 10:58:08;;;;;;;1.53;1.43;;;10.20;99.90;;;;;;4982174;28;20191;-67
2023/01/14 11:00:39;;;;;;;4.70;1.27;;;10.20;99.90;;;;;;4987307;28;20233;-67
2023/01/14 11:03:18;;;;;;;3.30;1.37;;;10.30;99.90;;;;;;4977511;28;20242;-68
2023/01/14 11:05:52;;;;;;;1.60;1.10;;;10.40;99.90;;;;;;4985484;28;20177;-68
2023/01/14 11:08:37;;;;;;;1.53;1.10;;;10.40;99.90;;;;;;4982068;28;20204;-68
2023/01/14 11:11:07;;;;;;;1.97;1.87;;;10.40;99.90;;;;;;4987386;28;20555;-68
2023/01/14 11:13:32;;;;;;;1.67;1.07;;;10.40;99.90;;;;;;4973642;28;20192;-68
2023/01/14 11:15:59;;;;;;;1.83;1.23;;;10.40;99.90;;;;;;4975010;28;20189;-68
2023/01/14 11:18:33;;;;;;;1.90;1.37;;;10.40;99.90;;;;;;4984236;28;20192;-65
2023/01/14 11:21:25;;;;;;;2.33;1.87;;;10.40;99.90;;;;;;4981852;28;20637;-68
2023/01/14 11:24:01;;;;;;;3.40;1.37;;;10.30;99.90;;;;;;4973629;28;20196;-68
2023/01/14 11:26:37;;;;;;;1.60;1.50;;;10.30;99.90;;;;;;4972057;28;20192;-68
2023/01/14 11:29:18;;;;;;;2.30;1.27;;;10.40;99.90;;;;;;4977004;28;20188;-67
2023/01/14 11:31:46;;;;;;;2.67;2.07;;;10.40;99.90;;;;;;4989968;28;20244;-69
2023/01/14 11:34:22;;;;;;;1.23;1.07;;;10.40;99.90;;;;;;4993729;28;20224;-68
2023/01/14 11:36:47;;;;;;;2.00;1.30;;;10.50;99.90;;;;;;4988327;28;20543;-68
2023/01/14 11:39:21;;;;;;;1.73;1.63;;;10.50;99.90;;;;;;4994432;28;20184;-68
2023/01/14 11:41:47;;;;;;;3.20;1.33;;;10.50;99.90;;;;;;4981101;28;20243;-68
2023/01/14 11:44:13;;;;;;;3.33;2.20;;;10.50;99.90;;;;;;4989906;28;20212;-67
2023/01/14 11:46:42;;;;;;;0.97;0.97;;;10.60;99.90;;;;;;4991691;28;20215;-68
2023/01/14 11:49:20;;;;;;;7.40;2.83;;;10.50;99.90;;;;;;4989788;28;20594;-69
2023/01/14 11:52:03;;;;;;;1.50;1.40;;;10.50;99.90;;;;;;4977187;28;20251;-68
2023/01/14 11:54:40;;;;;;;3.27;1.37;;;10.50;99.90;;;;;;4984798;28;20203;-66
2023/01/14 11:57:15;;;;;;;1.37;1.27;;;10.60;99.90;;;;;;4981855;28;20185;-66
2023/01/14 11:59:42;;;;;;;2.07;1.63;;;10.60;99.90;;;;;;4994439;28;20265;-68
2023/01/14 12:02:13;;;;;;;5.40;1.87;;;10.60;99.90;;;;;;4982454;28;20189;-68
2023/01/14 12:04:51;;;;;;;3.53;1.70;;;10.60;99.90;;;;;;4979060;28;20192;-67
2023/01/14 12:07:25;;;;;;;5.07;2.50;;;10.70;99.90;;;;;;4991262;28;20216;-65
2023/01/14 12:10:02;;;;;;;3.73;2.40;;;10.60;99.90;;;;;;4982678;28;20225;-65
2023/01/14 12:18:42;;;;;;;3.47;1.93;;;10.70;99.90;;;;;;4980881;28;20190;-67
2023/01/14 12:21:08;;;;;;;3.40;2.07;;;10.70;99.90;;;;;;4989506;28;20188;-66
2023/01/14 12:23:44;;;;;;;4.63;2.05;;;10.80;99.90;;;;;;4976759;28;20208;-67
2023/01/14 12:26:24;;;;;;;4.68;2.00;;;10.90;99.90;;;;;;4976471;28;20626;-65
2023/01/14 12:28:57;;;;;;;1.50;1.40;;;10.90;99.90;;;;;;4988073;28;20226;-66
2023/01/14 12:31:33;;;;;;;3.42;2.05;;;10.90;99.90;;;;;;4994983;28;20208;-66
2023/01/14 12:34:09;;;;;;;3.15;1.88;;;11.00;99.90;;;;;;4987664;28;20283;-65
2023/01/14 12:36:52;;;;;;;1.70;1.60;;;10.90;99.90;;;;;;4985428;28;20192;-66
2023/01/14 12:47:58;;;;;;;5.65;1.85;;;11.20;99.90;;;;;;4990685;28;20250;-65
2023/01/14 12:50:25;;;;;;;3.60;1.35;;;11.20;99.90;;;;;;4975670;28;20191;-65
2023/01/14 12:52:53;;;;;;;4.30;1.80;;;11.10;99.90;;;;;;4982796;28;20234;-66
2023/01/14 12:55:37;;;;;;;1.88;1.60;;;11.20;99.90;;;;;;4989189;28;20212;-65
2023/01/14 12:58:06;;;;;;;1.25;1.25;;;11.20;99.90;;;;;;4990903;28;20259;-65
2023/01/14 13:00:35;;;;;;;1.98;1.73;;;11.20;99.90;;;;;;4976672;28;20181;-67
2023/01/14 13:03:08;;;;;;;2.08;1.67;;;11.20;99.90;;;;;;4986336;28;20642;-65
2023/01/14 13:05:37;;;;;;;3.03;1.67;;;11.30;99.90;;;;;;4975972;28;20184;-66
2023/01/14 13:08:07;;;;;;;2.67;1.92;;;11.20;99.90;;;;;;4981525;28;20180;-66
2023/01/14 13:10:38;;;;;;;2.08;1.70;;;11.20;99.90;;;;;;4975310;28;20232;-67
2023/01/14 13:13:17;;;;;;;3.20;1.80;;;11.20;99.90;;;;;;4975618;28;20555;-66
2023/01/14 13:15:43;;;;;;;3.30;1.95;;;11.30;99.90;;;;;;4977047;28;20192;-65
2023/01/14 13:18:34;;;;;;;2.15;1.90;;;11.30;99.90;;;;;;4977208;28;20188;-66
2023/01/14 13:21:00;;;;;;;3.53;2.05;;;11.30;99.90;;;;;;4976610;28;20216;-65
2023/01/14 13:23:44;;;;;;;2.10;2.00;;;11.30;99.90;;;;;;4978463;28;20688;-66
2023/01/14 13:26:19;;;;;;;2.80;2.28;;;11.30;99.90;;;;;;4989254;28;20645;-66
2023/01/14 13:29:15;;;;;;;5.97;2.35;;;11.20;99.90;;;;;;4975604;28;20202;-65
2023/01/14 13:31:42;;;;;;;5.47;4.35;;;11.30;99.90;;;;;;4983738;28;20291;-65
2023/01/14 13:34:28;;;;;;;2.75;2.35;;;11.30;99.90;;;;;;4982671;28;20254;-65
2023/01/14 13:36:59;;;;;;;6.60;3.40;;;11.30;99.90;;;;;;4985815;28;20187;-67
2023/01/14 13:39:25;;;;;;;2.17;1.98;;;11.30;99.90;;;;;;4975276;28;20188;-66
2023/01/14 13:41:54;;;;;;;3.60;3.00;;;11.40;99.90;;;;;;4984590;28;20200;-65
2023/01/14 13:44:33;;;;;;;5.65;4.65;;;11.40;99.90;;;;;;4991585;28;20185;-65
2023/01/14 13:47:25;;;;;;;2.25;2.05;;;11.40;99.90;;;;;;4984864;28;20322;-68
2023/01/14 13:50:03;;;;;;;4.68;2.58;;;11.40;99.90;;;;;;4979011;28;20189;-65
2023/01/14 13:52:33;;;;;;;5.28;3.22;;;11.40;99.90;;;;;;4974467;28;20739;-65
2023/01/14 13:55:04;;;;;;;3.85;2.70;;;11.50;99.90;;;;;;4985587;28;20198;-66
2023/01/14 13:57:46;;;;;;;5.85;2.95;;;11.50;99.90;;;;;;4980003;28;20660;-65
2023/01/14 14:00:23;;;;;;;4.18;2.83;;;11.50;99.90;;;;;;4984644;28;20176;-65
2023/01/14 14:02:50;;;;;;;3.00;2.15;;;11.50;99.90;;;;;;4973284;28;20230;-66